sensor_id;sensor_type;location;lat;lon;timestamp;temperature;humidity
52159;DHT22;38145;53.182;6.284;2023-04-25T00:00:32;6.40;99.90
52159;DHT22;38145;53.182;6.284;2023-04-25T00:02:58;6.50;99.90
52159;DHT22;38145;53.182;6.284;2023-04-25T00:05:26;6.50;99.90
52159;DHT22;38145;53.182;6.284;2023-04-25T00:07:52;6.50;99.90
52159;DHT22;38145;53.182;6.284;2023-04-25T00:10:19;6.40;99.90
52159;DHT22;38145;53.182;6.284;2023-04-25T00:12:45;6.40;99.90
52159;DHT22;38145;53.182;6.284;2023-04-25T00:15:12;6.40;99.90
52159;DHT22;38145;53.182;6.284;2023-04-25T00:17:38;6.30;99.90
52159;DHT22;38145;53.182;6.284;2023-04-25T00:20:04;6.30;99.90
52159;DHT22;38145;53.182;6.284;2023-04-25T00:22:31;6.30;99.90
52159;DHT22;38145;53.182;6.284;2023-04-25T00:24:57;6.20;99.90
52159;DHT22;38145;53.182;6.284;2023-04-25T00:27:26;6.20;99.90
52159;DHT22;38145;53.182;6.284;2023-04-25T00:29:52;6.20;99.90
52159;DHT22;38145;53.182;6.284;2023-04-25T00:32:18;6.10;99.90
52159;DHT22;38145;53.182;6.284;2023-04-25T00:34:44;6.10;99.90
52159;DHT22;38145;53.182;6.284;2023-04-25T00:37:10;6.10;99.90
52159;DHT22;38145;53.182;6.284;2023-04-25T00:39:36;6.10;99.90
52159;DHT22;38145;53.182;6.284;2023-04-25T00:42:02;6.00;99.90
52159;DHT22;38145;53.182;6.284;2023-04-25T00:44:30;6.00;99.90
52159;DHT22;38145;53.182;6.284;2023-04-25T00:46:57;6.00;99.90
52159;DHT22;38145;53.182;6.284;2023-04-25T00:49:23;5.90;99.90
52159;DHT22;38145;53.182;6.284;2023-04-25T00:51:49;5.90;99.90
52159;DHT22;38145;53.182;6.284;2023-04-25T00:54:16;5.90;99.90
52159;DHT22;38145;53.182;6.284;2023-04-25T00:56:42;5.80;99.90
52159;DHT22;38145;53.182;6.284;2023-04-25T00:59:09;5.80;99.90
52159;DHT22;38145;53.182;6.284;2023-04-25T01:01:35;5.80;99.90
52159;DHT22;38145;53.182;6.284;2023-04-25T01:04:02;5.80;99.90
52159;DHT22;38145;53.182;6.284;2023-04-25T01:06:28;5.80;99.90
52159;DHT22;38145;53.182;6.284;2023-04-25T01:08:54;5.80;99.90
52159;DHT22;38145;53.182;6.284;2023-04-25T01:11:20;5.80;99.90
52159;DHT22;38145;53.182;6.284;2023-04-25T01:13:46;5.80;99.90
52159;DHT22;38145;53.182;6.284;2023-04-25T01:16:12;5.80;99.90
52159;DHT22;38145;53.182;6.284;2023-04-25T01:18:40;5.80;99.90
52159;DHT22;38145;53.182;6.284;2023-04-25T01:21:08;5.90;99.90
52159;DHT22;38145;53.182;6.284;2023-04-25T01:23:36;5.80;99.90
52159;DHT22;38145;53.182;6.284;2023-04-25T01:26:02;5.80;99.90
52159;DHT22;38145;53.182;6.284;2023-04-25T01:28:29;5.80;99.90
52159;DHT22;38145;53.182;6.284;2023-04-25T01:30:56;5.80;99.90
52159;DHT22;38145;53.182;6.284;2023-04-25T01:33:22;5.80;99.90
52159;DHT22;38145;53.182;6.284;2023-04-25T01:35:48;5.80;99.90
52159;DHT22;38145;53.182;6.284;2023-04-25T01:38:14;5.80;99.90
52159;DHT22;38145;53.182;6.284;2023-04-25T01:40:41;5.80;99.90
52159;DHT22;38145;53.182;6.284;2023-04-25T01:43:08;5.80;99.90
52159;DHT22;38145;53.182;6.284;2023-04-25T01:45:38;5.80;99.90
52159;DHT22;38145;53.182;6.284;2023-04-25T01:48:08;5.80;99.90
52159;DHT22;38145;53.182;6.284;2023-04-25T01:50:34;5.80;99.90
52159;DHT22;38145;53.182;6.284;2023-04-25T01:53:00;5.80;99.90
52159;DHT22;38145;53.182;6.284;2023-04-25T01:55:27;5.80;99.90
52159;DHT22;38145;53.182;6.284;2023-04-25T01:57:54;5.80;99.90
52159;DHT22;38145;53.182;6.284;2023-04-25T02:00:20;5.80;99.90
52159;DHT22;38145;53.182;6.284;2023-04-25T02:02:46;5.80;99.90
52159;DHT22;38145;53.182;6.284;2023-04-25T02:05:12;5.80;99.90
52159;DHT22;38145;53.182;6.284;2023-04-25T02:07:38;5.80;99.90
52159;DHT22;38145;53.182;6.284;2023-04-25T02:10:04;5.80;99.90
52159;DHT22;38145;53.182;6.284;2023-04-25T02:12:31;5.80;99.90
52159;DHT22;38145;53.182;6.284;2023-04-25T02:14:57;5.80;99.90
52159;DHT22;38145;53.182;6.284;2023-04-25T02:17:23;5.80;99.90
52159;DHT22;38145;53.182;6.284;2023-04-25T02:19:49;5.80;99.90
52159;DHT22;38145;53.182;6.284;2023-04-25T02:22:15;5.80;99.90
52159;DHT22;38145;53.182;6.284;2023-04-25T02:24:41;5.80;99.90
52159;DHT22;38145;53.182;6.284;2023-04-25T02:27:07;5.80;99.90
52159;DHT22;38145;53.182;6.284;2023-04-25T02:29:33;5.70;99.90
52159;DHT22;38145;53.182;6.284;2023-04-25T02:31:59;5.80;99.90
52159;DHT22;38145;53.182;6.284;2023-04-25T02:34:24;5.70;99.90
52159;DHT22;38145;53.182;6.284;2023-04-25T02:36:50;5.80;99.90
52159;DHT22;38145;53.182;6.284;2023-04-25T02:39:17;5.70;99.90
52159;DHT22;38145;53.182;6.284;2023-04-25T02:41:43;5.70;99.90
52159;DHT22;38145;53.182;6.284;2023-04-25T02:44:09;5.70;99.90
52159;DHT22;38145;53.182;6.284;2023-04-25T02:46:35;5.70;99.90
52159;DHT22;38145;53.182;6.284;2023-04-25T02:49:01;5.70;99.90
52159;DHT22;38145;53.182;6.284;2023-04-25T02:51:27;5.70;99.90
52159;DHT22;38145;53.182;6.284;2023-04-25T02:53:52;5.70;99.90
52159;DHT22;38145;53.182;6.284;2023-04-25T02:56:18;5.70;99.90
52159;DHT22;38145;53.182;6.284;2023-04-25T02:58:44;5.70;99.90
52159;DHT22;38145;53.182;6.284;2023-04-25T03:01:10;5.60;99.90
52159;DHT22;38145;53.182;6.284;2023-04-25T03:03:37;5.60;99.90
52159;DHT22;38145;53.182;6.284;2023-04-25T03:06:03;5.60;99.90
52159;DHT22;38145;53.182;6.284;2023-04-25T03:08:29;5.60;99.90
52159;DHT22;38145;53.182;6.284;2023-04-25T03:10:58;5.50;99.90
52159;DHT22;38145;53.182;6.284;2023-04-25T03:13:24;5.50;99.90
52159;DHT22;38145;53.182;6.284;2023-04-25T03:15:50;5.50;99.90
52159;DHT22;38145;53.182;6.284;2023-04-25T03:18:16;5.50;99.90
52159;DHT22;38145;53.182;6.284;2023-04-25T03:20:42;5.50;99.90
52159;DHT22;38145;53.182;6.284;2023-04-25T03:23:08;5.40;99.90
52159;DHT22;38145;53.182;6.284;2023-04-25T03:25:34;5.40;99.90
52159;DHT22;38145;53.182;6.284;2023-04-25T03:28:00;5.50;99.90
52159;DHT22;38145;53.182;6.284;2023-04-25T03:30:26;5.40;99.90
52159;DHT22;38145;53.182;6.284;2023-04-25T03:32:52;5.40;99.90
52159;DHT22;38145;53.182;6.284;2023-04-25T03:35:17;5.30;99.90
52159;DHT22;38145;53.182;6.284;2023-04-25T03:37:43;5.30;99.90
52159;DHT22;38145;53.182;6.284;2023-04-25T03:40:11;5.30;99.90
52159;DHT22;38145;53.182;6.284;2023-04-25T03:42:37;5.20;99.90
52159;DHT22;38145;53.182;6.284;2023-04-25T03:45:03;5.10;99.90
52159;DHT22;38145;53.182;6.284;2023-04-25T03:47:29;5.10;99.90
52159;DHT22;38145;53.182;6.284;2023-04-25T03:49:55;5.00;99.90
52159;DHT22;38145;53.182;6.284;2023-04-25T03:52:21;5.10;99.90
52159;DHT22;38145;53.182;6.284;2023-04-25T03:54:46;5.10;99.90
52159;DHT22;38145;53.182;6.284;2023-04-25T03:57:12;5.00;99.90
52159;DHT22;38145;53.182;6.284;2023-04-25T03:59:38;5.10;99.90
52159;DHT22;38145;53.182;6.284;2023-04-25T04:02:04;5.10;99.90
52159;DHT22;38145;53.182;6.284;2023-04-25T04:04:30;5.10;99.90
52159;DHT22;38145;53.182;6.284;2023-04-25T04:06:55;5.10;99.90
52159;DHT22;38145;53.182;6.284;2023-04-25T04:09:21;5.10;99.90
52159;DHT22;38145;53.182;6.284;2023-04-25T04:11:47;5.00;99.90
52159;DHT22;38145;53.182;6.284;2023-04-25T04:14:13;5.00;99.90
52159;DHT22;38145;53.182;6.284;2023-04-25T04:16:39;4.90;99.90
52159;DHT22;38145;53.182;6.284;2023-04-25T04:19:05;4.90;99.90
52159;DHT22;38145;53.182;6.284;2023-04-25T04:21:31;4.80;99.90
52159;DHT22;38145;53.182;6.284;2023-04-25T04:23:57;4.80;99.90
52159;DHT22;38145;53.182;6.284;2023-04-25T04:26:25;4.70;99.90
52159;DHT22;38145;53.182;6.284;2023-04-25T04:28:52;4.60;99.90
52159;DHT22;38145;53.182;6.284;2023-04-25T04:31:20;4.60;99.90
52159;DHT22;38145;53.182;6.284;2023-04-25T04:33:45;4.60;99.90
52159;DHT22;38145;53.182;6.284;2023-04-25T04:36:12;4.50;99.90
52159;DHT22;38145;53.182;6.284;2023-04-25T04:38:39;4.50;99.90
52159;DHT22;38145;53.182;6.284;2023-04-25T04:41:06;4.50;99.90
52159;DHT22;38145;53.182;6.284;2023-04-25T04:43:32;4.50;99.90
52159;DHT22;38145;53.182;6.284;2023-04-25T04:46:00;4.60;99.90
52159;DHT22;38145;53.182;6.284;2023-04-25T04:48:26;4.70;99.90
52159;DHT22;38145;53.182;6.284;2023-04-25T04:50:53;4.70;99.90
52159;DHT22;38145;53.182;6.284;2023-04-25T04:53:19;4.80;99.90
52159;DHT22;38145;53.182;6.284;2023-04-25T04:55:45;4.80;99.90
52159;DHT22;38145;53.182;6.284;2023-04-25T04:58:11;4.80;99.90
52159;DHT22;38145;53.182;6.284;2023-04-25T05:00:37;4.90;99.90
52159;DHT22;38145;53.182;6.284;2023-04-25T05:03:03;4.90;99.90
52159;DHT22;38145;53.182;6.284;2023-04-25T05:05:31;5.00;99.90
52159;DHT22;38145;53.182;6.284;2023-04-25T05:07:57;5.00;99.90
52159;DHT22;38145;53.182;6.284;2023-04-25T05:10:22;5.00;99.90
52159;DHT22;38145;53.182;6.284;2023-04-25T05:12:48;5.10;99.90
52159;DHT22;38145;53.182;6.284;2023-04-25T05:15:14;5.10;99.90
52159;DHT22;38145;53.182;6.284;2023-04-25T05:17:42;5.10;99.90
52159;DHT22;38145;53.182;6.284;2023-04-25T05:20:09;5.20;99.90
52159;DHT22;38145;53.182;6.284;2023-04-25T05:22:36;5.20;99.90
52159;DHT22;38145;53.182;6.284;2023-04-25T05:25:03;5.20;99.90
52159;DHT22;38145;53.182;6.284;2023-04-25T05:27:29;5.20;99.90
52159;DHT22;38145;53.182;6.284;2023-04-25T05:29:55;5.30;99.90
52159;DHT22;38145;53.182;6.284;2023-04-25T05:32:21;5.30;99.90
52159;DHT22;38145;53.182;6.284;2023-04-25T05:34:53;5.30;99.90
52159;DHT22;38145;53.182;6.284;2023-04-25T05:37:19;5.30;99.90
52159;DHT22;38145;53.182;6.284;2023-04-25T05:39:47;5.30;99.90
52159;DHT22;38145;53.182;6.284;2023-04-25T05:42:13;5.30;99.90
52159;DHT22;38145;53.182;6.284;2023-04-25T05:44:39;5.40;99.90
52159;DHT22;38145;53.182;6.284;2023-04-25T05:47:05;5.40;99.90
52159;DHT22;38145;53.182;6.284;2023-04-25T05:49:31;5.40;99.90
52159;DHT22;38145;53.182;6.284;2023-04-25T05:51:57;5.60;99.90
52159;DHT22;38145;53.182;6.284;2023-04-25T05:54:22;5.70;99.90
52159;DHT22;38145;53.182;6.284;2023-04-25T05:56:48;5.90;99.90
52159;DHT22;38145;53.182;6.284;2023-04-25T05:59:14;6.00;99.90
52159;DHT22;38145;53.182;6.284;2023-04-25T06:01:40;6.00;99.90
52159;DHT22;38145;53.182;6.284;2023-04-25T06:04:06;6.00;99.90
52159;DHT22;38145;53.182;6.284;2023-04-25T06:06:32;6.00;99.90
52159;DHT22;38145;53.182;6.284;2023-04-25T06:08:58;6.00;99.90
52159;DHT22;38145;53.182;6.284;2023-04-25T06:11:24;6.00;99.90
52159;DHT22;38145;53.182;6.284;2023-04-25T06:13:50;6.00;99.90
52159;DHT22;38145;53.182;6.284;2023-04-25T06:16:16;6.00;99.90
52159;DHT22;38145;53.182;6.284;2023-04-25T06:18:42;6.00;99.90
52159;DHT22;38145;53.182;6.284;2023-04-25T06:21:07;6.00;99.90
52159;DHT22;38145;53.182;6.284;2023-04-25T06:23:33;6.00;99.90
52159;DHT22;38145;53.182;6.284;2023-04-25T06:25:59;6.00;99.90
52159;DHT22;38145;53.182;6.284;2023-04-25T06:28:25;6.00;99.90
52159;DHT22;38145;53.182;6.284;2023-04-25T06:30:51;6.00;99.90
52159;DHT22;38145;53.182;6.284;2023-04-25T06:33:17;6.10;99.90
52159;DHT22;38145;53.182;6.284;2023-04-25T06:35:43;6.20;99.90
52159;DHT22;38145;53.182;6.284;2023-04-25T06:38:09;6.30;99.90
52159;DHT22;38145;53.182;6.284;2023-04-25T06:40:35;6.50;99.90
52159;DHT22;38145;53.182;6.284;2023-04-25T06:43:00;6.60;99.90
52159;DHT22;38145;53.182;6.284;2023-04-25T06:45:26;6.60;99.90
52159;DHT22;38145;53.182;6.284;2023-04-25T06:47:52;6.60;99.90
52159;DHT22;38145;53.182;6.284;2023-04-25T06:50:18;6.70;99.90
52159;DHT22;38145;53.182;6.284;2023-04-25T06:52:44;6.70;99.90
52159;DHT22;38145;53.182;6.284;2023-04-25T06:55:09;6.80;99.90
52159;DHT22;38145;53.182;6.284;2023-04-25T06:57:35;6.90;99.90
52159;DHT22;38145;53.182;6.284;2023-04-25T07:00:01;6.90;99.90
52159;DHT22;38145;53.182;6.284;2023-04-25T07:02:30;6.90;99.90
52159;DHT22;38145;53.182;6.284;2023-04-25T07:04:56;7.00;99.90
52159;DHT22;38145;53.182;6.284;2023-04-25T07:07:26;7.10;99.90
52159;DHT22;38145;53.182;6.284;2023-04-25T07:09:51;7.20;99.90
52159;DHT22;38145;53.182;6.284;2023-04-25T07:12:17;7.30;99.90
52159;DHT22;38145;53.182;6.284;2023-04-25T07:14:43;7.60;99.90
52159;DHT22;38145;53.182;6.284;2023-04-25T07:17:09;7.60;99.90
52159;DHT22;38145;53.182;6.284;2023-04-25T07:19:35;7.40;99.90
52159;DHT22;38145;53.182;6.284;2023-04-25T07:22:02;7.30;99.90
52159;DHT22;38145;53.182;6.284;2023-04-25T07:24:28;7.20;99.90
52159;DHT22;38145;53.182;6.284;2023-04-25T07:26:54;7.10;99.90
52159;DHT22;38145;53.182;6.284;2023-04-25T07:29:20;7.10;99.90
52159;DHT22;38145;53.182;6.284;2023-04-25T07:31:46;6.90;99.90
52159;DHT22;38145;53.182;6.284;2023-04-25T07:34:12;6.90;99.90
52159;DHT22;38145;53.182;6.284;2023-04-25T07:36:37;6.90;99.90
52159;DHT22;38145;53.182;6.284;2023-04-25T07:39:03;6.90;99.90
52159;DHT22;38145;53.182;6.284;2023-04-25T07:41:29;6.90;99.90
52159;DHT22;38145;53.182;6.284;2023-04-25T07:43:55;6.90;99.90
52159;DHT22;38145;53.182;6.284;2023-04-25T07:46:21;6.90;99.90
52159;DHT22;38145;53.182;6.284;2023-04-25T07:48:47;7.00;99.90
52159;DHT22;38145;53.182;6.284;2023-04-25T07:51:12;7.10;99.90
52159;DHT22;38145;53.182;6.284;2023-04-25T07:53:38;7.30;99.90
52159;DHT22;38145;53.182;6.284;2023-04-25T07:56:05;7.50;99.90
52159;DHT22;38145;53.182;6.284;2023-04-25T07:58:31;7.60;99.90
52159;DHT22;38145;53.182;6.284;2023-04-25T08:00:57;7.70;99.90
52159;DHT22;38145;53.182;6.284;2023-04-25T08:03:22;7.70;99.90
52159;DHT22;38145;53.182;6.284;2023-04-25T08:05:48;7.70;99.90
52159;DHT22;38145;53.182;6.284;2023-04-25T08:08:14;7.80;99.90
52159;DHT22;38145;53.182;6.284;2023-04-25T08:10:41;7.60;99.90
52159;DHT22;38145;53.182;6.284;2023-04-25T08:13:07;7.20;99.90
52159;DHT22;38145;53.182;6.284;2023-04-25T08:15:33;7.30;99.90
52159;DHT22;38145;53.182;6.284;2023-04-25T08:17:59;7.50;99.90
52159;DHT22;38145;53.182;6.284;2023-04-25T08:20:25;7.40;99.90
52159;DHT22;38145;53.182;6.284;2023-04-25T08:22:51;7.50;99.90
52159;DHT22;38145;53.182;6.284;2023-04-25T08:25:17;7.80;99.90
52159;DHT22;38145;53.182;6.284;2023-04-25T08:27:43;7.60;99.90
52159;DHT22;38145;53.182;6.284;2023-04-25T08:30:09;6.70;99.90
52159;DHT22;38145;53.182;6.284;2023-04-25T08:32:35;6.40;99.90
52159;DHT22;38145;53.182;6.284;2023-04-25T08:35:03;6.00;99.90
52159;DHT22;38145;53.182;6.284;2023-04-25T08:37:29;5.90;99.90
52159;DHT22;38145;53.182;6.284;2023-04-25T08:39:55;6.00;99.90
52159;DHT22;38145;53.182;6.284;2023-04-25T08:42:21;6.30;99.90
52159;DHT22;38145;53.182;6.284;2023-04-25T08:44:49;6.60;99.90
52159;DHT22;38145;53.182;6.284;2023-04-25T08:47:15;7.10;99.90
52159;DHT22;38145;53.182;6.284;2023-04-25T08:49:45;7.40;99.90
52159;DHT22;38145;53.182;6.284;2023-04-25T08:52:12;7.60;99.90
52159;DHT22;38145;53.182;6.284;2023-04-25T08:54:42;8.00;99.90
52159;DHT22;38145;53.182;6.284;2023-04-25T08:57:10;8.40;99.90
52159;DHT22;38145;53.182;6.284;2023-04-25T08:59:36;8.90;99.90
52159;DHT22;38145;53.182;6.284;2023-04-25T09:02:04;9.30;99.90
52159;DHT22;38145;53.182;6.284;2023-04-25T09:04:31;9.70;99.90
52159;DHT22;38145;53.182;6.284;2023-04-25T09:06:57;10.10;99.90
52159;DHT22;38145;53.182;6.284;2023-04-25T09:09:24;10.40;99.90
52159;DHT22;38145;53.182;6.284;2023-04-25T09:11:50;10.90;99.90
52159;DHT22;38145;53.182;6.284;2023-04-25T09:14:19;10.70;99.90
52159;DHT22;38145;53.182;6.284;2023-04-25T09:17:07;10.20;99.90
52159;DHT22;38145;53.182;6.284;2023-04-25T09:19:35;9.40;99.90
52159;DHT22;38145;53.182;6.284;2023-04-25T09:22:03;8.30;99.90
52159;DHT22;38145;53.182;6.284;2023-04-25T09:24:35;7.70;99.90
52159;DHT22;38145;53.182;6.284;2023-04-25T09:27:04;7.40;99.90
52159;DHT22;38145;53.182;6.284;2023-04-25T09:29:32;7.20;99.90
52159;DHT22;38145;53.182;6.284;2023-04-25T09:34:40;7.60;99.90
52159;DHT22;38145;53.182;6.284;2023-04-25T09:37:08;8.00;99.90
52159;DHT22;38145;53.182;6.284;2023-04-25T09:39:37;8.30;99.90
52159;DHT22;38145;53.182;6.284;2023-04-25T09:42:04;8.40;99.90
52159;DHT22;38145;53.182;6.284;2023-04-25T09:44:30;8.70;99.90
52159;DHT22;38145;53.182;6.284;2023-04-25T09:46:56;8.90;99.90
52159;DHT22;38145;53.182;6.284;2023-04-25T09:49:23;9.10;99.90
52159;DHT22;38145;53.182;6.284;2023-04-25T09:51:57;9.20;99.90
52159;DHT22;38145;53.182;6.284;2023-04-25T09:54:24;9.30;99.90
52159;DHT22;38145;53.182;6.284;2023-04-25T09:56:52;9.60;99.90
52159;DHT22;38145;53.182;6.284;2023-04-25T09:59:21;9.80;99.90
52159;DHT22;38145;53.182;6.284;2023-04-25T10:01:49;9.70;99.90
52159;DHT22;38145;53.182;6.284;2023-04-25T10:04:21;9.00;99.90
52159;DHT22;38145;53.182;6.284;2023-04-25T10:06:49;9.00;99.90
52159;DHT22;38145;53.182;6.284;2023-04-25T10:09:16;9.30;99.90
52159;DHT22;38145;53.182;6.284;2023-04-25T10:11:45;9.60;99.90
52159;DHT22;38145;53.182;6.284;2023-04-25T10:14:14;9.70;99.90
52159;DHT22;38145;53.182;6.284;2023-04-25T10:16:41;9.60;99.90
52159;DHT22;38145;53.182;6.284;2023-04-25T10:19:07;9.70;99.90
52159;DHT22;38145;53.182;6.284;2023-04-25T10:21:34;9.50;99.90
52159;DHT22;38145;53.182;6.284;2023-04-25T10:24:00;9.30;99.90
52159;DHT22;38145;53.182;6.284;2023-04-25T10:26:27;9.00;99.90
52159;DHT22;38145;53.182;6.284;2023-04-25T10:28:57;8.90;99.90
52159;DHT22;38145;53.182;6.284;2023-04-25T10:31:24;8.80;99.90
52159;DHT22;38145;53.182;6.284;2023-04-25T10:33:50;9.10;99.90
52159;DHT22;38145;53.182;6.284;2023-04-25T10:36:20;9.10;99.90
52159;DHT22;38145;53.182;6.284;2023-04-25T10:38:48;9.10;99.90
52159;DHT22;38145;53.182;6.284;2023-04-25T10:41:17;8.60;99.90
52159;DHT22;38145;53.182;6.284;2023-04-25T10:43:45;8.10;99.90
52159;DHT22;38145;53.182;6.284;2023-04-25T10:46:22;7.70;99.90
52159;DHT22;38145;53.182;6.284;2023-04-25T10:48:54;7.60;99.90
52159;DHT22;38145;53.182;6.284;2023-04-25T10:51:25;7.70;99.90
52159;DHT22;38145;53.182;6.284;2023-04-25T10:54:01;7.80;99.90
52159;DHT22;38145;53.182;6.284;2023-04-25T10:56:29;8.10;99.90
52159;DHT22;38145;53.182;6.284;2023-04-25T10:59:05;8.00;99.90
52159;DHT22;38145;53.182;6.284;2023-04-25T11:01:40;8.40;99.90
52159;DHT22;38145;53.182;6.284;2023-04-25T11:04:32;8.60;99.90
52159;DHT22;38145;53.182;6.284;2023-04-25T11:09:29;8.60;99.90
52159;DHT22;38145;53.182;6.284;2023-04-25T11:11:57;8.70;99.90
52159;DHT22;38145;53.182;6.284;2023-04-25T11:14:24;8.80;99.90
52159;DHT22;38145;53.182;6.284;2023-04-25T11:16:55;8.90;99.90
52159;DHT22;38145;53.182;6.284;2023-04-25T11:19:22;8.70;99.90
52159;DHT22;38145;53.182;6.284;2023-04-25T11:21:48;8.80;99.90
52159;DHT22;38145;53.182;6.284;2023-04-25T11:24:15;8.80;99.90
52159;DHT22;38145;53.182;6.284;2023-04-25T11:26:42;8.50;99.90
52159;DHT22;38145;53.182;6.284;2023-04-25T11:29:09;8.30;99.90
52159;DHT22;38145;53.182;6.284;2023-04-25T11:31:35;8.10;99.90
52159;DHT22;38145;53.182;6.284;2023-04-25T11:34:01;8.20;99.90
52159;DHT22;38145;53.182;6.284;2023-04-25T11:36:27;8.60;99.90
52159;DHT22;38145;53.182;6.284;2023-04-25T11:38:53;8.80;99.90
52159;DHT22;38145;53.182;6.284;2023-04-25T11:41:20;9.00;99.90
52159;DHT22;38145;53.182;6.284;2023-04-25T11:43:46;9.20;99.90
52159;DHT22;38145;53.182;6.284;2023-04-25T11:46:11;9.30;99.90
52159;DHT22;38145;53.182;6.284;2023-04-25T11:48:39;9.30;99.90
52159;DHT22;38145;53.182;6.284;2023-04-25T11:51:05;9.30;99.90
52159;DHT22;38145;53.182;6.284;2023-04-25T11:53:31;9.40;99.90
52159;DHT22;38145;53.182;6.284;2023-04-25T11:55:57;9.40;99.90
52159;DHT22;38145;53.182;6.284;2023-04-25T11:58:23;9.40;99.90
52159;DHT22;38145;53.182;6.284;2023-04-25T12:00:50;9.20;99.90
52159;DHT22;38145;53.182;6.284;2023-04-25T12:03:17;9.30;99.90
52159;DHT22;38145;53.182;6.284;2023-04-25T12:05:44;9.50;99.90
52159;DHT22;38145;53.182;6.284;2023-04-25T12:08:12;9.70;99.90
52159;DHT22;38145;53.182;6.284;2023-04-25T12:10:40;9.90;99.90
52159;DHT22;38145;53.182;6.284;2023-04-25T12:13:24;10.10;99.90
52159;DHT22;38145;53.182;6.284;2023-04-25T12:15:50;10.00;99.90
52159;DHT22;38145;53.182;6.284;2023-04-25T12:18:20;9.70;99.90
52159;DHT22;38145;53.182;6.284;2023-04-25T12:20:47;9.30;99.90
52159;DHT22;38145;53.182;6.284;2023-04-25T12:23:12;9.10;99.90
52159;DHT22;38145;53.182;6.284;2023-04-25T12:25:40;8.80;99.90
52159;DHT22;38145;53.182;6.284;2023-04-25T12:28:16;8.80;99.90
52159;DHT22;38145;53.182;6.284;2023-04-25T12:30:58;8.60;99.90
52159;DHT22;38145;53.182;6.284;2023-04-25T12:33:26;8.90;99.90
52159;DHT22;38145;53.182;6.284;2023-04-25T12:35:53;9.20;99.90
52159;DHT22;38145;53.182;6.284;2023-04-25T12:38:25;9.10;99.90
52159;DHT22;38145;53.182;6.284;2023-04-25T12:40:52;9.40;99.90
52159;DHT22;38145;53.182;6.284;2023-04-25T12:43:18;9.30;99.90
52159;DHT22;38145;53.182;6.284;2023-04-25T12:45:49;9.20;99.90
52159;DHT22;38145;53.182;6.284;2023-04-25T12:48:16;8.90;99.90
52159;DHT22;38145;53.182;6.284;2023-04-25T12:50:42;8.60;99.90
52159;DHT22;38145;53.182;6.284;2023-04-25T12:53:09;8.40;99.90
52159;DHT22;38145;53.182;6.284;2023-04-25T12:55:35;8.30;99.90
52159;DHT22;38145;53.182;6.284;2023-04-25T12:58:01;8.30;99.90
52159;DHT22;38145;53.182;6.284;2023-04-25T13:00:29;8.50;99.90
52159;DHT22;38145;53.182;6.284;2023-04-25T13:02:55;8.90;99.90
52159;DHT22;38145;53.182;6.284;2023-04-25T13:05:21;9.30;99.90
52159;DHT22;38145;53.182;6.284;2023-04-25T13:07:47;9.30;99.90
52159;DHT22;38145;53.182;6.284;2023-04-25T13:10:13;9.30;99.90
52159;DHT22;38145;53.182;6.284;2023-04-25T13:12:39;9.10;99.90
52159;DHT22;38145;53.182;6.284;2023-04-25T13:15:06;9.10;99.90
52159;DHT22;38145;53.182;6.284;2023-04-25T13:17:34;9.20;99.90
52159;DHT22;38145;53.182;6.284;2023-04-25T13:20:00;9.20;99.90
52159;DHT22;38145;53.182;6.284;2023-04-25T13:22:26;9.10;99.90
52159;DHT22;38145;53.182;6.284;2023-04-25T13:24:52;8.70;99.90
52159;DHT22;38145;53.182;6.284;2023-04-25T13:27:17;8.30;99.90
52159;DHT22;38145;53.182;6.284;2023-04-25T13:29:44;8.00;99.90
52159;DHT22;38145;53.182;6.284;2023-04-25T13:32:09;7.90;99.90
52159;DHT22;38145;53.182;6.284;2023-04-25T13:34:35;7.80;99.90
52159;DHT22;38145;53.182;6.284;2023-04-25T13:37:01;7.80;99.90
52159;DHT22;38145;53.182;6.284;2023-04-25T13:39:27;7.90;99.90
52159;DHT22;38145;53.182;6.284;2023-04-25T13:41:53;7.90;99.90
52159;DHT22;38145;53.182;6.284;2023-04-25T13:44:19;8.00;99.90
52159;DHT22;38145;53.182;6.284;2023-04-25T13:46:45;7.90;99.90
52159;DHT22;38145;53.182;6.284;2023-04-25T13:49:12;8.00;99.90
52159;DHT22;38145;53.182;6.284;2023-04-25T13:51:37;8.50;99.90
52159;DHT22;38145;53.182;6.284;2023-04-25T13:54:03;8.60;99.90
52159;DHT22;38145;53.182;6.284;2023-04-25T13:56:29;8.70;99.90
52159;DHT22;38145;53.182;6.284;2023-04-25T13:58:55;8.70;99.90
52159;DHT22;38145;53.182;6.284;2023-04-25T14:01:22;8.50;99.90
52159;DHT22;38145;53.182;6.284;2023-04-25T14:03:48;8.30;99.90
52159;DHT22;38145;53.182;6.284;2023-04-25T14:06:14;8.20;99.90
52159;DHT22;38145;53.182;6.284;2023-04-25T14:08:46;8.20;99.90
52159;DHT22;38145;53.182;6.284;2023-04-25T14:11:12;8.30;99.90
52159;DHT22;38145;53.182;6.284;2023-04-25T14:13:38;8.20;99.90
52159;DHT22;38145;53.182;6.284;2023-04-25T14:16:04;8.20;99.90
52159;DHT22;38145;53.182;6.284;2023-04-25T14:18:30;8.10;99.90
52159;DHT22;38145;53.182;6.284;2023-04-25T14:20:56;8.10;99.90
52159;DHT22;38145;53.182;6.284;2023-04-25T14:23:22;8.00;99.90
52159;DHT22;38145;53.182;6.284;2023-04-25T14:25:48;8.00;99.90
52159;DHT22;38145;53.182;6.284;2023-04-25T14:28:14;7.90;99.90
52159;DHT22;38145;53.182;6.284;2023-04-25T14:30:40;8.00;99.90
52159;DHT22;38145;53.182;6.284;2023-04-25T14:33:06;8.20;99.90
52159;DHT22;38145;53.182;6.284;2023-04-25T14:35:32;8.30;99.90
52159;DHT22;38145;53.182;6.284;2023-04-25T14:37:58;8.40;99.90
52159;DHT22;38145;53.182;6.284;2023-04-25T14:40:25;8.60;99.90
52159;DHT22;38145;53.182;6.284;2023-04-25T14:42:51;8.90;99.90
52159;DHT22;38145;53.182;6.284;2023-04-25T14:45:17;9.00;99.90
52159;DHT22;38145;53.182;6.284;2023-04-25T14:47:43;8.70;99.90
52159;DHT22;38145;53.182;6.284;2023-04-25T14:50:10;8.20;99.90
52159;DHT22;38145;53.182;6.284;2023-04-25T14:52:36;7.90;99.90
52159;DHT22;38145;53.182;6.284;2023-04-25T14:55:02;8.10;99.90
52159;DHT22;38145;53.182;6.284;2023-04-25T14:57:31;8.10;99.90
52159;DHT22;38145;53.182;6.284;2023-04-25T14:59:57;8.20;99.90
52159;DHT22;38145;53.182;6.284;2023-04-25T15:02:24;8.40;99.90
52159;DHT22;38145;53.182;6.284;2023-04-25T15:04:51;8.30;99.90
52159;DHT22;38145;53.182;6.284;2023-04-25T15:07:17;8.40;99.90
52159;DHT22;38145;53.182;6.284;2023-04-25T15:09:43;8.40;99.90
52159;DHT22;38145;53.182;6.284;2023-04-25T15:12:09;8.50;99.90
52159;DHT22;38145;53.182;6.284;2023-04-25T15:14:35;8.40;99.90
52159;DHT22;38145;53.182;6.284;2023-04-25T15:17:01;8.30;99.90
52159;DHT22;38145;53.182;6.284;2023-04-25T15:19:28;8.10;99.90
52159;DHT22;38145;53.182;6.284;2023-04-25T15:21:53;8.10;99.90
52159;DHT22;38145;53.182;6.284;2023-04-25T15:24:20;8.00;99.90
52159;DHT22;38145;53.182;6.284;2023-04-25T15:26:47;8.00;99.90
52159;DHT22;38145;53.182;6.284;2023-04-25T15:29:12;7.90;99.90
52159;DHT22;38145;53.182;6.284;2023-04-25T15:31:38;7.90;99.90
52159;DHT22;38145;53.182;6.284;2023-04-25T15:34:04;7.80;99.90
52159;DHT22;38145;53.182;6.284;2023-04-25T15:36:30;7.80;99.90
52159;DHT22;38145;53.182;6.284;2023-04-25T15:38:57;7.80;99.90
52159;DHT22;38145;53.182;6.284;2023-04-25T15:41:23;8.10;99.90
52159;DHT22;38145;53.182;6.284;2023-04-25T15:43:50;8.00;99.90
52159;DHT22;38145;53.182;6.284;2023-04-25T15:46:17;8.00;99.90